createdAt,value
2019-04-09T00:02:38.635Z,10.78
2019-04-09T00:05:47.978Z,10.64
2019-04-09T00:10:57.361Z,10.65
2019-04-09T00:13:46.398Z,10.73
2019-04-09T00:19:28.612Z,10.63
2019-04-09T00:21:57.080Z,10.50
2019-04-09T00:24:45.575Z,10.85
2019-04-09T00:27:15.062Z,10.70
2019-04-09T00:29:44.237Z,10.84
2019-04-09T00:34:48.693Z,10.73
2019-04-09T00:37:18.508Z,10.44
2019-04-09T00:40:06.185Z,10.45
2019-04-09T00:42:35.711Z,10.39
2019-04-09T00:45:44.767Z,10.38
2019-04-09T00:48:13.670Z,10.41
2019-04-09T00:50:43.642Z,10.19
2019-04-09T00:53:13.651Z,9.98
2019-04-09T00:55:42.094Z,10.22
2019-04-09T00:58:10.552Z,10.29
2019-04-09T01:00:58.332Z,10.29
2019-04-09T01:03:26.843Z,10.42
2019-04-09T01:05:55.306Z,10.38
2019-04-09T01:11:17.681Z,10.43
2019-04-09T01:16:39.004Z,10.11
2019-04-09T01:19:15.555Z,10.11
2019-04-09T01:24:25.286Z,10.06
2019-04-09T01:32:35.502Z,10.15
2019-04-09T01:35:45.033Z,10.15
2019-04-09T01:38:32.710Z,9.98
2019-04-09T01:41:21.394Z,9.79
2019-04-09T01:44:09.695Z,9.69
2019-04-09T01:52:22.316Z,9.66
2019-04-09T01:58:00.360Z,9.49
2019-04-09T02:00:48.581Z,9.48
2019-04-09T02:03:56.683Z,9.50
2019-04-09T02:06:44.255Z,9.24
2019-04-09T02:09:31.938Z,9.16
2019-04-09T02:12:39.256Z,9.24
2019-04-09T02:15:47.878Z,9.27
2019-04-09T02:24:05.821Z,9.24
2019-04-09T02:26:53.414Z,9.22
2019-04-09T02:29:41.017Z,9.33
2019-04-09T02:32:28.606Z,9.16
2019-04-09T02:35:16.846Z,9.10
2019-04-09T02:43:48.278Z,9.19
2019-04-09T02:46:36.337Z,9.20
2019-04-09T02:49:43.536Z,9.19
2019-04-09T02:52:31.721Z,9.09
2019-04-09T02:55:38.991Z,8.92
2019-04-09T03:01:15.791Z,9.14
2019-04-09T03:04:04.402Z,8.89
2019-04-09T03:06:52.981Z,8.94
2019-04-09T03:13:10.114Z,9.01
2019-04-09T03:15:58.835Z,9.05
2019-04-09T03:18:47.604Z,9.02
2019-04-09T03:21:35.921Z,8.95
2019-04-09T03:27:03.353Z,9.25
2019-04-09T03:29:51.210Z,9.28
2019-04-09T03:35:34.447Z,9.26
2019-04-09T03:38:22.161Z,9.24
2019-04-09T03:41:10.149Z,9.16
2019-04-09T03:43:57.800Z,8.91
2019-04-09T03:46:45.386Z,8.93
2019-04-09T03:49:34.061Z,8.94
2019-04-09T03:52:41.654Z,8.89
2019-04-09T03:55:29.688Z,8.98
2019-04-09T03:58:21.656Z,8.91
2019-04-09T04:01:06.596Z,8.93
2019-04-09T04:06:44.121Z,9.06
2019-04-09T04:09:32.655Z,8.98
2019-04-09T04:12:21.082Z,8.78
2019-04-09T04:18:19.264Z,8.70
2019-04-09T04:23:56.043Z,8.62
2019-04-09T04:29:33.134Z,8.58
2019-04-09T04:32:20.713Z,8.55
2019-04-09T04:35:08.321Z,8.54
2019-04-09T04:37:56.086Z,8.54
2019-04-09T04:40:43.707Z,8.51
2019-04-09T04:46:20.491Z,8.49
2019-04-09T04:49:08.753Z,8.49
2019-04-09T04:51:59.164Z,8.44
2019-04-09T04:57:35.876Z,8.35
2019-04-09T05:00:45.001Z,8.41
2019-04-09T05:03:33.596Z,8.47
2019-04-09T05:06:21.969Z,8.39
2019-04-09T05:14:40.550Z,8.60
2019-04-09T05:17:28.845Z,8.73
2019-04-09T05:20:18.067Z,8.74
2019-04-09T05:23:05.624Z,8.89
2019-04-09T05:25:53.743Z,8.84
2019-04-09T05:28:50.724Z,8.92
2019-04-09T05:34:07.233Z,9.09
2019-04-09T05:36:56.190Z,9.20
2019-04-09T05:39:44.898Z,9.25
2019-04-09T05:42:33.130Z,9.25
2019-04-09T05:45:21.843Z,9.32
2019-04-09T05:48:09.500Z,9.27
2019-04-09T05:53:36.731Z,9.44
2019-04-09T05:56:43.554Z,9.54
2019-04-09T05:59:31.272Z,9.51
2019-04-09T06:02:19.122Z,9.57
2019-04-09T06:05:06.863Z,9.65
2019-04-09T06:08:13.718Z,9.78
2019-04-09T06:16:31.471Z,9.87
2019-04-09T06:19:00.894Z,9.93
2019-04-09T06:21:32.979Z,10.02
2019-04-09T06:26:33.170Z,10.23
2019-04-09T06:29:23.599Z,10.21
2019-04-09T06:34:59.376Z,10.33
2019-04-09T06:37:46.960Z,10.32
2019-04-09T06:40:34.925Z,10.43
2019-04-09T06:46:11.641Z,10.51
2019-04-09T06:48:59.189Z,10.67
2019-04-09T06:59:56.965Z,11.22
2019-04-09T07:05:33.661Z,11.41
2019-04-09T07:08:21.237Z,11.26
2019-04-09T07:11:15.142Z,10.92
2019-04-09T07:13:58.154Z,10.92
2019-04-09T07:16:46.119Z,11.04
2019-04-09T07:19:34.488Z,11.07
2019-04-09T07:22:23.094Z,10.94
2019-04-09T07:25:10.679Z,10.84
2019-04-09T07:27:58.297Z,11.02
2019-04-09T07:39:09.003Z,11.11
2019-04-09T07:41:56.575Z,11.17
2019-04-09T07:47:38.872Z,11.24
2019-04-09T07:50:47.370Z,11.30
2019-04-09T07:53:34.938Z,11.28
2019-04-09T07:56:26.684Z,11.50
2019-04-09T07:59:17.939Z,11.57
2019-04-09T08:02:02.161Z,11.56
2019-04-09T08:04:51.301Z,11.49
2019-04-09T08:10:15.766Z,11.95
2019-04-09T08:16:11.834Z,11.72
2019-04-09T08:18:59.748Z,11.80
2019-04-09T08:21:48.819Z,11.80
2019-04-09T08:24:36.495Z,11.82
2019-04-09T08:27:45.172Z,11.85
2019-04-09T08:30:54.982Z,12.13
2019-04-09T08:33:42.661Z,12.22
2019-04-09T08:36:54.564Z,12.10
2019-04-09T08:39:42.852Z,12.16
2019-04-09T08:42:30.854Z,12.31
2019-04-09T08:53:28.573Z,12.45
2019-04-09T08:56:16.296Z,12.62
2019-04-09T08:59:28.734Z,12.52
2019-04-09T09:02:23.146Z,12.71
2019-04-09T09:05:12.579Z,12.84
2019-04-09T09:08:12.551Z,13.11
2019-04-09T09:11:20.203Z,12.85
2019-04-09T09:17:07.946Z,13.08
2019-04-09T09:22:43.049Z,13.23
2019-04-09T09:25:52.292Z,13.26
2019-04-09T09:29:00.318Z,13.11
2019-04-09T09:31:48.987Z,13.14
2019-04-09T09:39:51.683Z,13.58
2019-04-09T09:42:40.406Z,13.65
2019-04-09T09:45:50.256Z,13.76
2019-04-09T09:48:41.234Z,14.49
2019-04-09T09:51:31.227Z,13.79
2019-04-09T09:57:12.695Z,13.90
2019-04-09T10:00:00.410Z,13.73
2019-04-09T10:02:46.117Z,13.83
2019-04-09T10:05:55.818Z,14.09
2019-04-09T10:09:04.285Z,14.43
2019-04-09T10:14:41.034Z,14.20
2019-04-09T10:17:32.322Z,14.15
2019-04-09T10:25:50.275Z,14.00
2019-04-09T10:28:38.773Z,14.18
2019-04-09T10:31:48.966Z,14.78
2019-04-09T10:34:36.445Z,14.54
2019-04-09T10:37:26.084Z,14.55
2019-04-09T10:40:34.313Z,14.54
2019-04-09T10:43:25.045Z,14.55
2019-04-09T10:46:11.269Z,14.57
2019-04-09T10:49:02.401Z,14.66
2019-04-09T10:52:08.030Z,14.58
2019-04-09T10:54:56.035Z,14.44
2019-04-09T11:00:52.197Z,14.61
2019-04-09T11:06:50.789Z,14.42
2019-04-09T11:10:01.095Z,14.43
2019-04-09T11:12:49.320Z,14.43
2019-04-09T11:15:36.965Z,14.68
2019-04-09T11:18:47.873Z,14.69
2019-04-09T11:21:54.921Z,14.81
2019-04-09T11:24:42.717Z,14.69
2019-04-09T11:30:39.274Z,14.89
2019-04-09T11:36:55.093Z,15.09
2019-04-09T11:39:42.808Z,15.06
2019-04-09T11:42:30.500Z,15.05
2019-04-09T11:48:27.747Z,15.11
2019-04-09T11:51:37.463Z,15.26
2019-04-09T11:57:20.822Z,15.46
2019-04-09T12:00:08.396Z,15.87
2019-04-09T12:03:16.965Z,15.87
2019-04-09T12:06:04.979Z,15.53
2019-04-09T12:09:13.033Z,15.60
2019-04-09T12:12:01.192Z,15.64
2019-04-09T12:14:48.919Z,15.79
2019-04-09T12:20:46.806Z,15.50
2019-04-09T12:23:35.711Z,15.70
2019-04-09T12:26:44.637Z,15.83
2019-04-09T12:29:55.184Z,16.20
2019-04-09T12:32:43.987Z,16.21
2019-04-09T12:35:51.984Z,16.09
2019-04-09T12:38:39.776Z,16.15
2019-04-09T12:44:56.145Z,16.09
2019-04-09T12:50:52.511Z,16.87
2019-04-09T12:54:00.130Z,16.68
2019-04-09T13:00:03.658Z,17.10
2019-04-09T13:02:52.449Z,16.55
2019-04-09T13:06:01.316Z,16.95
2019-04-09T13:08:49.733Z,17.12
2019-04-09T13:11:38.331Z,17.14
2019-04-09T13:14:25.975Z,17.00
2019-04-09T13:17:13.959Z,17.26
2019-04-09T13:20:04.006Z,17.24
2019-04-09T13:22:52.295Z,17.04
2019-04-09T13:25:39.874Z,16.69
2019-04-09T13:28:27.508Z,16.88
2019-04-09T13:31:15.109Z,16.92
2019-04-09T13:34:03.638Z,16.97
2019-04-09T13:36:53.280Z,16.92
2019-04-09T13:39:42.671Z,16.83
2019-04-09T13:42:30.977Z,16.94
2019-04-09T13:45:18.610Z,17.36
2019-04-09T13:48:06.186Z,17.35
2019-04-09T13:50:54.161Z,17.07
2019-04-09T13:53:22.649Z,16.92
2019-04-09T13:55:51.080Z,17.24
2019-04-09T13:58:27.059Z,17.12
2019-04-09T14:00:56.545Z,17.05
2019-04-09T14:06:35.060Z,17.19
2019-04-09T14:09:44.264Z,17.31
2019-04-09T14:12:12.851Z,17.14
2019-04-09T14:14:41.314Z,17.12
2019-04-09T14:17:09.771Z,17.16
2019-04-09T14:20:00.126Z,17.21
2019-04-09T14:22:27.928Z,17.08
2019-04-09T14:24:56.801Z,17.34
2019-04-09T14:30:02.129Z,17.55
2019-04-09T14:32:32.184Z,17.36
2019-04-09T14:35:01.434Z,17.52
2019-04-09T14:37:49.160Z,17.74
2019-04-09T14:40:36.937Z,17.76
2019-04-09T14:43:25.850Z,17.97
2019-04-09T14:46:16.045Z,17.49
2019-04-09T14:51:57.951Z,17.61
2019-04-09T14:57:01.178Z,18.02
2019-04-09T14:59:30.494Z,17.72
2019-04-09T15:01:59.861Z,17.67
2019-04-09T15:04:28.322Z,17.47
2019-04-09T15:07:16.032Z,17.42
2019-04-09T15:09:44.502Z,17.23
2019-04-09T15:12:13.154Z,17.44
2019-04-09T15:17:16.738Z,17.29
2019-04-09T15:19:46.167Z,17.28
2019-04-09T15:22:34.730Z,17.42
2019-04-09T15:28:12.032Z,17.41
2019-04-09T15:30:41.795Z,17.35
2019-04-09T15:33:24.461Z,17.20
2019-04-09T15:36:02.147Z,17.29
2019-04-09T15:38:32.012Z,17.55
2019-04-09T15:41:01.712Z,17.39
2019-04-09T15:43:49.471Z,17.38
2019-04-09T15:46:17.932Z,17.26
2019-04-09T15:49:05.623Z,17.14
2019-04-09T15:51:35.214Z,17.11
2019-04-09T15:57:18.112Z,17.21
2019-04-09T15:59:46.911Z,17.16
2019-04-09T16:02:35.904Z,17.46
2019-04-09T16:05:44.857Z,17.32
2019-04-09T16:08:34.576Z,17.21
2019-04-09T16:11:23.061Z,17.16
2019-04-09T16:16:25.603Z,17.12
2019-04-09T16:21:30.695Z,16.78
2019-04-09T16:24:01.128Z,16.65
2019-04-09T16:26:31.351Z,16.55
2019-04-09T16:29:22.214Z,16.44
2019-04-09T16:31:50.973Z,16.41
2019-04-09T16:34:20.046Z,16.35
2019-04-09T16:36:59.634Z,16.36
2019-04-09T16:39:18.836Z,16.37
2019-04-09T16:42:06.535Z,16.31
2019-04-09T16:44:35.987Z,16.29
2019-04-09T16:47:05.183Z,16.57
2019-04-09T16:49:33.737Z,16.16
2019-04-09T16:52:02.226Z,15.09
2019-04-09T16:54:31.262Z,14.41
2019-04-09T16:59:56.065Z,12.94
2019-04-09T17:04:58.234Z,12.29
2019-04-09T17:07:26.692Z,12.00
2019-04-09T17:09:56.129Z,11.82
2019-04-09T17:12:26.283Z,11.80
2019-04-09T17:14:55.568Z,11.89
2019-04-09T17:17:44.431Z,11.88
2019-04-09T17:20:14.745Z,12.11
2019-04-09T17:22:44.939Z,12.22
2019-04-09T17:25:53.839Z,12.16
2019-04-09T17:28:22.301Z,12.17
2019-04-09T17:30:50.771Z,12.32
2019-04-09T17:33:19.280Z,12.45
2019-04-09T17:35:48.417Z,12.54
2019-04-09T17:38:37.356Z,12.55
2019-04-09T17:41:06.163Z,12.56
2019-04-09T17:43:55.363Z,12.40
2019-04-09T17:46:23.826Z,12.62
2019-04-09T17:48:52.754Z,12.65
2019-04-09T17:51:22.768Z,12.57
2019-04-09T17:53:53.247Z,12.58
2019-04-09T17:56:23.639Z,12.47
2019-04-09T17:58:53.457Z,12.53
2019-04-09T18:01:23.322Z,12.41
2019-04-09T18:04:11.622Z,12.60
2019-04-09T18:07:01.929Z,12.51
2019-04-09T18:09:31.625Z,12.44
2019-04-09T18:12:20.958Z,12.58
2019-04-09T18:15:10.166Z,12.40
2019-04-09T18:17:39.618Z,12.43
2019-04-09T18:20:49.932Z,12.44
2019-04-09T18:23:20.237Z,12.62
2019-04-09T18:28:42.757Z,12.61
2019-04-09T18:31:34.609Z,12.44
2019-04-09T18:34:02.834Z,12.57
2019-04-09T18:36:32.627Z,12.53
2019-04-09T18:41:36.954Z,12.44
2019-04-09T18:44:24.863Z,12.51
2019-04-09T18:46:53.620Z,12.40
2019-04-09T18:49:42.881Z,12.43
2019-04-09T18:52:11.423Z,12.33
2019-04-09T18:54:40.002Z,12.52
2019-04-09T18:57:28.086Z,12.27
2019-04-09T18:59:57.985Z,12.63
2019-04-09T19:02:45.679Z,12.35
2019-04-09T19:05:54.050Z,12.51
2019-04-09T19:11:16.444Z,12.77
2019-04-09T19:13:44.949Z,12.83
2019-04-09T19:16:32.738Z,12.47
2019-04-09T19:19:20.573Z,12.78
2019-04-09T19:21:49.270Z,12.68
2019-04-09T19:24:19.267Z,12.64
2019-04-09T19:26:47.725Z,12.60
2019-04-09T19:29:16.189Z,12.31
2019-04-09T19:31:45.303Z,12.35
2019-04-09T19:34:15.131Z,12.56
2019-04-09T19:36:45.064Z,12.68
2019-04-09T19:39:15.271Z,12.64
2019-04-09T19:41:43.904Z,12.40
2019-04-09T19:44:12.695Z,12.40
2019-04-09T19:46:42.712Z,12.23
2019-04-09T19:49:30.826Z,12.19
2019-04-09T19:52:00.661Z,12.10
2019-04-09T19:54:29.440Z,12.13
2019-04-09T19:59:33.408Z,12.30
2019-04-09T20:02:02.820Z,12.13
2019-04-09T20:04:32.862Z,12.25
2019-04-09T20:07:02.363Z,12.24
2019-04-09T20:12:37.689Z,12.22
2019-04-09T20:15:46.507Z,12.24
2019-04-09T20:18:35.673Z,12.28
2019-04-09T20:21:24.339Z,12.35
2019-04-09T20:23:53.668Z,11.99
2019-04-09T20:26:22.165Z,11.89
2019-04-09T20:28:50.952Z,11.85
2019-04-09T20:31:20.822Z,11.70
2019-04-09T20:33:49.727Z,11.86
2019-04-09T20:39:52.812Z,11.94
2019-04-09T20:42:22.434Z,12.12
2019-04-09T20:44:51.787Z,12.13
2019-04-09T20:47:41.310Z,12.34
2019-04-09T20:50:50.183Z,12.16
2019-04-09T20:53:20.101Z,12.25
2019-04-09T20:55:50.125Z,12.24
2019-04-09T20:58:18.589Z,12.46
2019-04-09T21:01:07.122Z,12.13
2019-04-09T21:09:20.470Z,12.26
2019-04-09T21:11:48.928Z,12.26
2019-04-09T21:14:36.749Z,11.84
2019-04-09T21:17:05.230Z,11.75
2019-04-09T21:19:33.796Z,11.44
2019-04-09T21:24:55.907Z,11.30
2019-04-09T21:29:59.776Z,11.05
2019-04-09T21:35:21.608Z,10.84
2019-04-09T21:40:26.624Z,11.02
2019-04-09T21:42:55.313Z,11.27
2019-04-09T21:45:45.285Z,11.43
2019-04-09T21:48:14.307Z,11.30
2019-04-09T21:50:42.756Z,11.21
2019-04-09T21:53:11.212Z,11.22
2019-04-09T21:58:14.402Z,11.24
2019-04-09T22:01:23.039Z,11.35
2019-04-09T22:04:33.734Z,11.02
2019-04-09T22:07:03.118Z,11.14
2019-04-09T22:09:51.389Z,11.19
2019-04-09T22:14:56.178Z,11.16
2019-04-09T22:20:01.831Z,11.16
2019-04-09T22:22:29.450Z,10.89
2019-04-09T22:25:00.448Z,11.03
2019-04-09T22:27:30.931Z,10.93
2019-04-09T22:29:59.914Z,11.00
2019-04-09T22:32:28.365Z,11.04
2019-04-09T22:34:56.899Z,11.17
2019-04-09T22:39:59.353Z,10.99
2019-04-09T22:42:27.812Z,10.86
2019-04-09T22:47:31.248Z,11.01
2019-04-09T22:52:54.250Z,10.79
2019-04-09T22:55:24.496Z,10.56
2019-04-09T22:58:13.658Z,10.49
2019-04-09T23:03:40.741Z,10.39
2019-04-09T23:06:28.320Z,10.39
2019-04-09T23:14:08.226Z,10.28
2019-04-09T23:16:37.936Z,10.27
2019-04-09T23:19:06.396Z,10.25
2019-04-09T23:24:09.386Z,10.21
2019-04-09T23:26:57.624Z,10.16
2019-04-09T23:29:27.249Z,10.10
2019-04-09T23:31:55.706Z,10.06
2019-04-09T23:34:24.202Z,10.06
2019-04-09T23:36:58.786Z,10.03
2019-04-09T23:39:22.839Z,9.99
2019-04-09T23:41:51.327Z,9.99
2019-04-09T23:44:30.321Z,9.98
2019-04-09T23:46:50.019Z,9.98
2019-04-09T23:49:19.743Z,9.99
2019-04-09T23:51:48.663Z,10.10
2019-04-09T23:54:18.038Z,9.98
2019-04-09T23:56:47.641Z,9.98
2019-04-09T23:59:17.807Z,10.00
